Time;durP1;ratioP1;P1;durP2;ratioP2;P2;SDS_P1;SDS_P2;PMS_P1;PMS_P2;Temp;Humidity;BMP_temperature;BMP_pressure;BME280_temperature;BME280_humidity;BME280_pressure;Samples;Min_cycle;Max_cycle;Signal;HPM_P1;HPM_P2
2021/06/30 00:58:20;;;;;;;;;;;;;;;;;;6048164;23;19935;-87
2021/06/30 01:20:49;;;;;;;;;;;;;;;;;;5084438;27;19956;-90
2021/06/30 03:39:29;;;;;;;;;;;;;;;;;;5952707;24;19934;-88
2021/06/30 04:38:39;;;;;;;;;;;;;;;;;;4478330;27;18794498;-87
2021/06/30 04:42:14;;;;;;;;;;;;;;;;;;5108302;27;19923;-86
2021/06/30 04:45:22;;;;;;;;;;;;;;;;;;5137572;27;19915;-83
2021/06/30 04:53:49;;;;;;;;;;;;;;;;;;5122910;27;19916;-85
2021/06/30 04:57:35;;;;;;;;;;;;;;;;;;4213545;27;26360324;-85
2021/06/30 05:00:52;;;;;;;;;;;;;;;;;;5044117;27;2591002;-87
2021/06/30 05:04:21;;;;;;;;;;;;;;;;;;5124876;27;19916;-87
2021/06/30 05:08:20;;;;;;;;;;;;;;;;;;5130902;27;19924;-87
2021/06/30 05:24:06;;;;;;;;;;;;;;;;;;3921153;27;34355172;-87
2021/06/30 05:27:15;;;;;;;;;;;;;;;;;;4986759;27;4472528;-83
2021/06/30 05:30:05;;;;;;;;;;;;;;;;;;5044774;27;2627552;-88
2021/06/30 05:43:28;;;;;;;;;;;;;;;;;;5418046;22;18328414;-83
2021/06/30 07:04:44;;;;;;;;;;;;;;;;;;5134844;27;19923;-84
2021/06/30 07:08:32;;;;;;;;;;;;;;;;;;5090947;28;19924;-81
2021/06/30 07:11:17;;;;;;;;;;;;;;;;;;5123229;27;19961;-81
2021/06/30 07:17:33;;;;;;;;;;;;;;;;;;5111303;27;19924;-82
2021/06/30 07:20:28;;;;;;;;;;;;;;;;;;5097843;27;20450;-83
2021/06/30 07:23:14;;;;;;;;;;;;;;;;;;5135229;27;19916;-83
2021/06/30 07:26:01;;;;;;;;;;;;;;;;;;5109959;27;19952;-81
2021/06/30 07:28:45;;;;;;;;;;;;;;;;;;5091862;27;19932;-86
2021/06/30 07:31:30;;;;;;;;;;;;;;;;;;5138383;27;19920;-86
2021/06/30 07:34:12;;;;;;;;;;;;;;;;;;5177172;27;19923;-88
2021/06/30 07:37:03;;;;;;;;;;;;;;;;;;5126648;27;19982;-86
2021/06/30 07:39:49;;;;;;;;;;;;;;;;;;5087736;27;19947;-83
2021/06/30 07:42:35;;;;;;;;;;;;;;;;;;5109864;27;19951;-82
2021/06/30 07:45:18;;;;;;;;;;;;;;;;;;5085579;27;19916;-82
2021/06/30 07:48:02;;;;;;;;;;;;;;;;;;5077792;27;20084;-82
2021/06/30 07:50:43;;;;;;;;;;;;;;;;;;5067691;27;19960;-82
2021/06/30 07:53:24;;;;;;;;;;;;;;;;;;5148828;27;20529;-81
2021/06/30 07:56:07;;;;;;;;;;;;;;;;;;5099865;27;19973;-83
2021/06/30 07:58:48;;;;;;;;;;;;;;;;;;5105997;27;19959;-81
2021/06/30 08:01:29;;;;;;;;;;;;;;;;;;5072573;27;19956;-84
2021/06/30 08:04:12;;;;;;;;;;;;;;;;;;5088548;27;20394;-81
2021/06/30 08:06:54;;;;;;;;;;;;;;;;;;5084217;27;19971;-82
2021/06/30 08:09:36;;;;;;;;;;;;;;;;;;5080048;27;19959;-83
2021/06/30 08:12:17;;;;;;;;;;;;;;;;;;5139537;27;19981;-83
2021/06/30 08:14:58;;;;;;;;;;;;;;;;;;5111600;27;19948;-84
2021/06/30 08:17:40;;;;;;;;;;;;;;;;;;5095447;27;19944;-85
2021/06/30 08:20:21;;;;;;;;;;;;;;;;;;5121708;27;19959;-82
2021/06/30 08:23:27;;;;;;;;;;;;;;;;;;5107520;27;19977;-82
2021/06/30 08:26:09;;;;;;;;;;;;;;;;;;5103736;27;19959;-81
2021/06/30 08:28:50;;;;;;;;;;;;;;;;;;5100767;27;19956;-81
2021/06/30 08:31:32;;;;;;;;;;;;;;;;;;5117754;27;19915;-81
2021/06/30 08:34:13;;;;;;;;;;;;;;;;;;5059199;27;19925;-82
2021/06/30 08:36:57;;;;;;;;;;;;;;;;;;5099928;27;19969;-82
2021/06/30 08:39:39;;;;;;;;;;;;;;;;;;5146771;27;19954;-84
2021/06/30 08:42:21;;;;;;;;;;;;;;;;;;5115778;27;20376;-83
2021/06/30 08:45:02;;;;;;;;;;;;;;;;;;5076660;28;19917;-81
2021/06/30 08:47:44;;;;;;;;;;;;;;;;;;5148769;27;20353;-82
2021/06/30 08:50:25;;;;;;;;;;;;;;;;;;5131823;27;20389;-80
2021/06/30 08:53:09;;;;;;;;;;;;;;;;;;5087031;27;19932;-83
2021/06/30 08:55:50;;;;;;;;;;;;;;;;;;5119247;27;19947;-82
2021/06/30 08:58:31;;;;;;;;;;;;;;;;;;5101145;27;19997;-80
2021/06/30 09:01:13;;;;;;;;;;;;;;;;;;5130554;27;20008;-83
2021/06/30 09:03:56;;;;;;;;;;;;;;;;;;5112524;27;19969;-82
2021/06/30 09:06:37;;;;;;;;;;;;;;;;;;5132867;27;19912;-80
2021/06/30 09:09:19;;;;;;;;;;;;;;;;;;5107240;27;19950;-83
2021/06/30 09:12:00;;;;;;;;;;;;;;;;;;5068429;27;19929;-81
2021/06/30 09:14:42;;;;;;;;;;;;;;;;;;5085429;27;19964;-82
2021/06/30 09:17:27;;;;;;;;;;;;;;;;;;5084931;28;20319;-83
2021/06/30 09:20:09;;;;;;;;;;;;;;;;;;5158761;27;19958;-81
2021/06/30 09:22:51;;;;;;;;;;;;;;;;;;5089897;27;19961;-81
2021/06/30 09:25:42;;;;;;;;;;;;;;;;;;5094630;27;20394;-80
2021/06/30 09:28:25;;;;;;;;;;;;;;;;;;5101679;27;19955;-78
2021/06/30 09:31:09;;;;;;;;;;;;;;;;;;5141932;27;19947;-79
2021/06/30 09:33:51;;;;;;;;;;;;;;;;;;5124487;27;20789;-80
2021/06/30 09:36:33;;;;;;;;;;;;;;;;;;5085233;27;19917;-79
2021/06/30 09:39:15;;;;;;;;;;;;;;;;;;5088618;27;19990;-80
2021/06/30 09:42:03;;;;;;;;;;;;;;;;;;5140365;27;20023;-80
2021/06/30 09:44:45;;;;;;;;;;;;;;;;;;5076131;27;19990;-78
2021/06/30 09:47:26;;;;;;;;;;;;;;;;;;5143187;27;19939;-81
2021/06/30 09:50:08;;;;;;;;;;;;;;;;;;5055893;27;2033187;-81
2021/06/30 09:52:49;;;;;;;;;;;;;;;;;;5073508;27;19982;-80
2021/06/30 09:55:31;;;;;;;;;;;;;;;;;;5148199;27;20006;-79
2021/06/30 09:58:12;;;;;;;;;;;;;;;;;;5087082;27;19948;-79
2021/06/30 10:00:56;;;;;;;;;;;;;;;;;;5063437;27;19917;-80
2021/06/30 10:03:40;;;;;;;;;;;;;;;;;;5094980;27;20020;-80
2021/06/30 10:06:25;;;;;;;;;;;;;;;;;;5068432;28;19986;-80
2021/06/30 10:09:07;;;;;;;;;;;;;;;;;;5095973;27;19955;-78
2021/06/30 10:11:56;;;;;;;;;;;;;;;;;;5076357;27;19952;-82
2021/06/30 10:14:38;;;;;;;;;;;;;;;;;;5106581;27;20336;-79
2021/06/30 10:17:19;;;;;;;;;;;;;;;;;;5144051;27;19975;-81
2021/06/30 10:20:02;;;;;;;;;;;;;;;;;;5130215;27;19965;-78
2021/06/30 10:22:43;;;;;;;;;;;;;;;;;;5138730;27;19966;-79
2021/06/30 10:25:25;;;;;;;;;;;;;;;;;;5084516;27;20007;-78
2021/06/30 10:28:07;;;;;;;;;;;;;;;;;;5054886;27;20017;-78
2021/06/30 10:30:48;;;;;;;;;;;;;;;;;;5078041;27;19970;-81
2021/06/30 10:33:34;;;;;;;;;;;;;;;;;;5084420;27;19960;-80
2021/06/30 10:36:16;;;;;;;;;;;;;;;;;;5100449;27;19952;-80
2021/06/30 10:38:57;;;;;;;;;;;;;;;;;;5153445;27;20014;-80
2021/06/30 10:41:43;;;;;;;;;;;;;;;;;;5144509;27;19948;-78
2021/06/30 10:44:25;;;;;;;;;;;;;;;;;;5084675;27;20025;-78
2021/06/30 10:47:26;;;;;;;;;;;;;;;;;;5103774;27;20451;-79
2021/06/30 10:50:24;;;;;;;;;;;;;;;;;;5096291;27;20401;-79
2021/06/30 10:53:25;;;;;;;;;;;;;;;;;;5148734;27;20025;-78
2021/06/30 10:56:11;;;;;;;;;;;;;;;;;;5104278;27;20398;-80
2021/06/30 10:59:03;;;;;;;;;;;;;;;;;;5091296;27;19970;-79
2021/06/30 11:01:58;;;;;;;;;;;;;;;;;;5081048;27;19967;-79
2021/06/30 11:04:39;;;;;;;;;;;;;;;;;;5139167;27;20344;-78
2021/06/30 11:07:32;;;;;;;;;;;;;;;;;;5098901;27;19993;-77
2021/06/30 11:10:27;;;;;;;;;;;;;;;;;;5133358;27;20372;-78
2021/06/30 11:13:07;;;;;;;;;;;;;;;;;;5099957;27;19978;-79
2021/06/30 11:15:52;;;;;;;;;;;;;;;;;;5064810;27;19924;-77
2021/06/30 11:18:48;;;;;;;;;;;;;;;;;;5104623;27;20389;-79
2021/06/30 11:21:30;;;;;;;;;;;;;;;;;;5068772;27;20341;-79
2021/06/30 11:24:25;;;;;;;;;;;;;;;;;;5082702;27;19916;-76
2021/06/30 11:27:06;;;;;;;;;;;;;;;;;;5137689;27;19989;-79
2021/06/30 11:29:48;;;;;;;;;;;;;;;;;;5114886;27;19944;-80
2021/06/30 11:32:51;;;;;;;;;;;;;;;;;;5085961;27;20009;-80
2021/06/30 11:35:34;;;;;;;;;;;;;;;;;;5103405;27;19963;-80
2021/06/30 11:38:17;;;;;;;;;;;;;;;;;;5095951;27;20020;-79
2021/06/30 11:41:06;;;;;;;;;;;;;;;;;;5079395;28;19951;-80
2021/06/30 11:43:47;;;;;;;;;;;;;;;;;;5083238;27;19921;-80
2021/06/30 11:46:31;;;;;;;;;;;;;;;;;;5063110;28;20383;-80
2021/06/30 11:49:16;;;;;;;;;;;;;;;;;;5086978;27;19947;-80
2021/06/30 11:51:58;;;;;;;;;;;;;;;;;;5073087;27;19977;-79
2021/06/30 11:54:39;;;;;;;;;;;;;;;;;;5139476;27;19942;-77
2021/06/30 11:57:21;;;;;;;;;;;;;;;;;;5104569;27;19937;-78
2021/06/30 12:00:05;;;;;;;;;;;;;;;;;;5147602;27;19916;-80
2021/06/30 12:02:54;;;;;;;;;;;;;;;;;;5064898;27;19950;-79
2021/06/30 12:05:37;;;;;;;;;;;;;;;;;;5159058;27;20000;-80
2021/06/30 12:08:18;;;;;;;;;;;;;;;;;;5129780;27;19920;-81
2021/06/30 12:11:00;;;;;;;;;;;;;;;;;;5123136;27;19959;-79
2021/06/30 12:13:41;;;;;;;;;;;;;;;;;;5137316;27;20152;-80
2021/06/30 12:16:36;;;;;;;;;;;;;;;;;;5136036;27;20377;-79
2021/06/30 12:19:18;;;;;;;;;;;;;;;;;;5100976;27;19963;-80
2021/06/30 12:21:58;;;;;;;;;;;;;;;;;;5105402;27;19944;-79
2021/06/30 12:24:40;;;;;;;;;;;;;;;;;;5120894;27;19973;-80
2021/06/30 12:27:22;;;;;;;;;;;;;;;;;;5140045;27;20015;-81
2021/06/30 12:30:04;;;;;;;;;;;;;;;;;;5101282;27;20016;-80
2021/06/30 12:32:46;;;;;;;;;;;;;;;;;;5048607;27;19945;-81
2021/06/30 12:35:30;;;;;;;;;;;;;;;;;;5127979;27;20316;-81
2021/06/30 12:38:14;;;;;;;;;;;;;;;;;;5021643;28;19922;-80
2021/06/30 12:41:05;;;;;;;;;;;;;;;;;;5086914;27;19975;-80
2021/06/30 12:43:45;;;;;;;;;;;;;;;;;;5123301;27;20534;-81
2021/06/30 12:46:27;;;;;;;;;;;;;;;;;;5066215;27;20748;-81
2021/06/30 12:49:14;;;;;;;;;;;;;;;;;;5105817;27;20021;-79
2021/06/30 12:51:56;;;;;;;;;;;;;;;;;;5086440;27;20035;-80
2021/06/30 12:54:39;;;;;;;;;;;;;;;;;;5118891;27;19951;-82
2021/06/30 12:57:19;;;;;;;;;;;;;;;;;;5093080;27;19944;-80
2021/06/30 13:00:10;;;;;;;;;;;;;;;;;;5127100;27;19916;-80
2021/06/30 13:03:06;;;;;;;;;;;;;;;;;;5104972;27;19955;-80
2021/06/30 13:05:48;;;;;;;;;;;;;;;;;;5080672;27;20393;-82
2021/06/30 13:08:37;;;;;;;;;;;;;;;;;;5109422;27;19968;-80
2021/06/30 13:11:21;;;;;;;;;;;;;;;;;;5097939;27;19960;-80
2021/06/30 13:14:09;;;;;;;;;;;;;;;;;;5089039;27;19948;-81
2021/06/30 13:16:51;;;;;;;;;;;;;;;;;;5130985;27;20385;-80
2021/06/30 13:19:34;;;;;;;;;;;;;;;;;;5097046;27;19952;-81
2021/06/30 13:22:17;;;;;;;;;;;;;;;;;;5119629;27;19977;-81
2021/06/30 13:25:01;;;;;;;;;;;;;;;;;;5082728;27;19956;-80
2021/06/30 13:27:45;;;;;;;;;;;;;;;;;;5121143;27;19909;-82
2021/06/30 13:36:31;;;;;;;;;;;;;;;;;;5172335;27;19941;-82
2021/06/30 13:39:12;;;;;;;;;;;;;;;;;;5094510;27;19920;-80
2021/06/30 13:41:53;;;;;;;;;;;;;;;;;;5074795;28;19925;-80
2021/06/30 13:44:35;;;;;;;;;;;;;;;;;;5093232;27;19917;-82
2021/06/30 13:47:19;;;;;;;;;;;;;;;;;;5114249;27;19947;-80
2021/06/30 13:50:01;;;;;;;;;;;;;;;;;;5152950;27;19915;-80
2021/06/30 13:52:43;;;;;;;;;;;;;;;;;;5121807;27;19951;-81
2021/06/30 13:55:25;;;;;;;;;;;;;;;;;;5100382;27;19952;-81
2021/06/30 13:58:08;;;;;;;;;;;;;;;;;;5051646;28;19956;-81
2021/06/30 14:00:49;;;;;;;;;;;;;;;;;;5141307;27;19976;-81
2021/06/30 14:03:30;;;;;;;;;;;;;;;;;;5168840;27;19916;-81
2021/06/30 14:06:12;;;;;;;;;;;;;;;;;;5103583;27;19981;-81
2021/06/30 14:08:53;;;;;;;;;;;;;;;;;;5128260;27;19996;-81
2021/06/30 14:11:35;;;;;;;;;;;;;;;;;;5101241;27;19952;-81
2021/06/30 14:14:16;;;;;;;;;;;;;;;;;;5100377;27;19951;-81
2021/06/30 14:16:59;;;;;;;;;;;;;;;;;;5126157;27;19952;-80
2021/06/30 14:19:39;;;;;;;;;;;;;;;;;;5091569;27;20275;-80
2021/06/30 14:22:22;;;;;;;;;;;;;;;;;;5136877;27;19928;-81
2021/06/30 14:25:03;;;;;;;;;;;;;;;;;;5098027;27;19924;-80
2021/06/30 14:27:44;;;;;;;;;;;;;;;;;;5152745;27;19927;-81
2021/06/30 14:30:26;;;;;;;;;;;;;;;;;;5110127;27;19916;-81
2021/06/30 14:33:07;;;;;;;;;;;;;;;;;;5107734;27;20021;-80
2021/06/30 14:35:49;;;;;;;;;;;;;;;;;;5068140;27;19917;-82
2021/06/30 14:38:30;;;;;;;;;;;;;;;;;;5150253;27;20366;-81
2021/06/30 14:41:12;;;;;;;;;;;;;;;;;;5119167;27;19956;-80
2021/06/30 14:43:58;;;;;;;;;;;;;;;;;;5119904;27;19960;-78
2021/06/30 14:46:39;;;;;;;;;;;;;;;;;;5108940;27;19977;-80
2021/06/30 14:49:08;;;;;;;;;;;;;;;;;;5103023;28;20298;-80
2021/06/30 14:51:50;;;;;;;;;;;;;;;;;;5124438;27;19947;-79
2021/06/30 14:54:31;;;;;;;;;;;;;;;;;;5134495;27;19904;-79
2021/06/30 14:57:13;;;;;;;;;;;;;;;;;;5118944;27;19933;-84
2021/06/30 14:59:54;;;;;;;;;;;;;;;;;;5117653;27;20439;-79
2021/06/30 15:02:36;;;;;;;;;;;;;;;;;;5088854;27;19950;-80
2021/06/30 15:05:19;;;;;;;;;;;;;;;;;;5064382;27;20000;-82
2021/06/30 15:08:03;;;;;;;;;;;;;;;;;;5083979;28;19964;-80
2021/06/30 15:10:45;;;;;;;;;;;;;;;;;;5144700;27;19969;-78
2021/06/30 15:13:28;;;;;;;;;;;;;;;;;;5145593;27;19959;-80
2021/06/30 15:16:10;;;;;;;;;;;;;;;;;;5100845;27;19955;-80
2021/06/30 15:18:51;;;;;;;;;;;;;;;;;;5138831;27;20389;-78
2021/06/30 15:21:33;;;;;;;;;;;;;;;;;;5079020;28;19937;-80
2021/06/30 15:24:14;;;;;;;;;;;;;;;;;;5138147;27;19943;-78
2021/06/30 15:26:56;;;;;;;;;;;;;;;;;;5136787;27;19965;-78
2021/06/30 15:29:37;;;;;;;;;;;;;;;;;;5087896;27;19956;-81
2021/06/30 15:32:19;;;;;;;;;;;;;;;;;;5124539;27;19947;-79
2021/06/30 15:35:01;;;;;;;;;;;;;;;;;;5106369;27;20370;-80
2021/06/30 15:37:44;;;;;;;;;;;;;;;;;;5094382;27;19940;-78
2021/06/30 15:40:25;;;;;;;;;;;;;;;;;;5140847;27;19947;-79
2021/06/30 15:43:09;;;;;;;;;;;;;;;;;;5164556;27;19955;-82
2021/06/30 15:45:51;;;;;;;;;;;;;;;;;;5120259;27;19939;-78
2021/06/30 15:48:31;;;;;;;;;;;;;;;;;;5106664;27;19952;-80
2021/06/30 15:51:13;;;;;;;;;;;;;;;;;;5104544;27;19959;-80
2021/06/30 15:53:54;;;;;;;;;;;;;;;;;;5099944;27;19959;-79
2021/06/30 15:56:39;;;;;;;;;;;;;;;;;;5172659;27;20396;-80
2021/06/30 15:59:21;;;;;;;;;;;;;;;;;;5140462;27;19985;-79
2021/06/30 16:02:02;;;;;;;;;;;;;;;;;;5103517;27;19969;-80
2021/06/30 16:04:44;;;;;;;;;;;;;;;;;;5133847;27;19951;-80
2021/06/30 16:07:25;;;;;;;;;;;;;;;;;;5078433;27;19916;-82
2021/06/30 16:10:08;;;;;;;;;;;;;;;;;;5123762;27;19924;-82
2021/06/30 16:12:50;;;;;;;;;;;;;;;;;;5092610;27;20037;-80
2021/06/30 16:15:31;;;;;;;;;;;;;;;;;;5148359;27;19976;-83
2021/06/30 16:18:32;;;;;;;;;;;;;;;;;;5105987;27;19977;-80
2021/06/30 16:21:14;;;;;;;;;;;;;;;;;;5115555;27;19950;-84
2021/06/30 16:23:55;;;;;;;;;;;;;;;;;;5082951;27;20451;-79
2021/06/30 16:26:40;;;;;;;;;;;;;;;;;;5072084;27;20053;-79
2021/06/30 16:29:21;;;;;;;;;;;;;;;;;;5085551;27;19952;-80
2021/06/30 16:32:03;;;;;;;;;;;;;;;;;;5086591;27;19963;-81
2021/06/30 16:34:44;;;;;;;;;;;;;;;;;;5123257;27;19961;-80
2021/06/30 16:37:26;;;;;;;;;;;;;;;;;;5160458;27;19912;-88
2021/06/30 16:40:11;;;;;;;;;;;;;;;;;;5174980;27;19924;-83
2021/06/30 16:42:59;;;;;;;;;;;;;;;;;;5146930;27;19963;-83
2021/06/30 16:46:12;;;;;;;;;;;;;;;;;;5008183;27;3801899;-81
2021/06/30 16:49:21;;;;;;;;;;;;;;;;;;5069705;27;19924;-84
2021/06/30 16:52:09;;;;;;;;;;;;;;;;;;4888147;27;6781197;-82
2021/06/30 16:54:52;;;;;;;;;;;;;;;;;;5073836;28;20327;-83
2021/06/30 16:57:33;;;;;;;;;;;;;;;;;;5106452;27;19964;-84
2021/06/30 17:00:24;;;;;;;;;;;;;;;;;;5103384;27;19997;-84
2021/06/30 17:03:25;;;;;;;;;;;;;;;;;;5082075;28;20049;-81
2021/06/30 17:06:12;;;;;;;;;;;;;;;;;;5104826;27;20395;-81
2021/06/30 17:08:51;;;;;;;;;;;;;;;;;;5077987;27;1974288;-86
2021/06/30 17:11:34;;;;;;;;;;;;;;;;;;5102979;27;20475;-82
2021/06/30 17:14:16;;;;;;;;;;;;;;;;;;5121721;27;19955;-81
2021/06/30 17:16:58;;;;;;;;;;;;;;;;;;5119278;27;19955;-80
2021/06/30 17:19:39;;;;;;;;;;;;;;;;;;5108459;27;19956;-82
2021/06/30 17:22:21;;;;;;;;;;;;;;;;;;5057466;27;20390;-82
2021/06/30 17:25:07;;;;;;;;;;;;;;;;;;5135011;27;19957;-80
2021/06/30 17:27:49;;;;;;;;;;;;;;;;;;5030185;27;20402;-81
2021/06/30 17:30:30;;;;;;;;;;;;;;;;;;5109643;27;19980;-81
2021/06/30 17:33:17;;;;;;;;;;;;;;;;;;5117914;27;20365;-81
2021/06/30 17:36:32;;;;;;;;;;;;;;;;;;5145812;27;19973;-82
2021/06/30 17:39:29;;;;;;;;;;;;;;;;;;5039764;27;19968;-85
2021/06/30 17:42:25;;;;;;;;;;;;;;;;;;4972229;27;4459664;-80
2021/06/30 17:45:13;;;;;;;;;;;;;;;;;;5139854;27;19951;-82
2021/06/30 17:48:06;;;;;;;;;;;;;;;;;;5071364;27;19936;-80
2021/06/30 17:50:47;;;;;;;;;;;;;;;;;;5107144;27;19924;-82
2021/06/30 17:53:29;;;;;;;;;;;;;;;;;;5087417;28;19951;-80
2021/06/30 17:56:10;;;;;;;;;;;;;;;;;;5105706;27;19946;-84
2021/06/30 17:58:55;;;;;;;;;;;;;;;;;;5066030;27;20022;-81
2021/06/30 18:01:37;;;;;;;;;;;;;;;;;;5131428;27;20009;-82
2021/06/30 18:04:16;;;;;;;;;;;;;;;;;;5068682;27;2037064;-81
2021/06/30 18:06:58;;;;;;;;;;;;;;;;;;5130500;27;20346;-79
2021/06/30 18:09:40;;;;;;;;;;;;;;;;;;5122292;27;20403;-81
2021/06/30 18:12:21;;;;;;;;;;;;;;;;;;5144652;27;20560;-82
2021/06/30 18:15:04;;;;;;;;;;;;;;;;;;5120940;27;20024;-81
2021/06/30 18:17:46;;;;;;;;;;;;;;;;;;5008313;28;19925;-79
2021/06/30 18:20:28;;;;;;;;;;;;;;;;;;5138091;27;19946;-81
2021/06/30 18:23:09;;;;;;;;;;;;;;;;;;5074578;27;21141;-80
2021/06/30 18:25:50;;;;;;;;;;;;;;;;;;5125427;27;19961;-80
2021/06/30 18:28:32;;;;;;;;;;;;;;;;;;5100711;27;19952;-82
2021/06/30 18:31:16;;;;;;;;;;;;;;;;;;5105634;27;21265;-80
2021/06/30 18:34:01;;;;;;;;;;;;;;;;;;5035264;27;2103118;-81
2021/06/30 18:36:44;;;;;;;;;;;;;;;;;;5065011;27;19970;-83
2021/06/30 18:39:26;;;;;;;;;;;;;;;;;;5114149;27;19982;-81
2021/06/30 18:42:08;;;;;;;;;;;;;;;;;;5101431;27;19962;-82
2021/06/30 18:44:51;;;;;;;;;;;;;;;;;;5099231;27;19969;-83
2021/06/30 18:47:32;;;;;;;;;;;;;;;;;;5104652;27;19955;-82
2021/06/30 18:50:18;;;;;;;;;;;;;;;;;;5102293;27;19943;-81
2021/06/30 18:53:00;;;;;;;;;;;;;;;;;;5060145;27;19952;-81
2021/06/30 18:55:42;;;;;;;;;;;;;;;;;;5120633;27;19955;-84
2021/06/30 18:58:26;;;;;;;;;;;;;;;;;;5096584;27;19938;-80
2021/06/30 19:01:31;;;;;;;;;;;;;;;;;;5102820;27;20185;-82
2021/06/30 19:04:17;;;;;;;;;;;;;;;;;;5143109;27;19959;-85
2021/06/30 19:06:58;;;;;;;;;;;;;;;;;;5150652;27;19956;-81
2021/06/30 19:09:57;;;;;;;;;;;;;;;;;;5164463;27;19976;-82
2021/06/30 19:12:52;;;;;;;;;;;;;;;;;;5099333;27;20369;-84
2021/06/30 19:15:41;;;;;;;;;;;;;;;;;;5106523;27;19924;-81
2021/06/30 19:18:23;;;;;;;;;;;;;;;;;;5082823;28;19952;-81
2021/06/30 19:21:04;;;;;;;;;;;;;;;;;;5100197;28;19955;-80
2021/06/30 19:23:46;;;;;;;;;;;;;;;;;;5024836;28;21604;-84
2021/06/30 19:26:28;;;;;;;;;;;;;;;;;;5080393;27;19974;-80
2021/06/30 19:29:15;;;;;;;;;;;;;;;;;;5116967;27;19915;-81
2021/06/30 19:32:02;;;;;;;;;;;;;;;;;;5080716;27;19960;-81
2021/06/30 19:35:35;;;;;;;;;;;;;;;;;;5048089;27;1989253;-82
2021/06/30 19:38:21;;;;;;;;;;;;;;;;;;5105568;27;20006;-81
2021/06/30 19:41:03;;;;;;;;;;;;;;;;;;5062077;27;20520;-81
2021/06/30 19:43:48;;;;;;;;;;;;;;;;;;5026643;28;19921;-82
2021/06/30 19:46:32;;;;;;;;;;;;;;;;;;5066462;27;19925;-80
2021/06/30 19:49:19;;;;;;;;;;;;;;;;;;5122931;27;20290;-82
2021/06/30 19:55:16;;;;;;;;;;;;;;;;;;5089561;27;19956;-81
2021/06/30 19:58:06;;;;;;;;;;;;;;;;;;5127029;27;20004;-83
2021/06/30 20:00:57;;;;;;;;;;;;;;;;;;5128237;27;20348;-83
2021/06/30 20:03:40;;;;;;;;;;;;;;;;;;5090255;27;20454;-80
2021/06/30 20:06:21;;;;;;;;;;;;;;;;;;5135575;27;19925;-82
2021/06/30 20:09:22;;;;;;;;;;;;;;;;;;5023435;28;19964;-85
2021/06/30 20:12:34;;;;;;;;;;;;;;;;;;5097793;27;20008;-82
2021/06/30 20:15:49;;;;;;;;;;;;;;;;;;4896003;27;6640323;-84
2021/06/30 20:19:11;;;;;;;;;;;;;;;;;;5090681;27;19956;-83
2021/06/30 20:22:03;;;;;;;;;;;;;;;;;;4539648;22;16972298;-82
2021/06/30 20:40:08;;;;;;;;;;;;;;;;;;4923971;27;5591716;-86
2021/06/30 20:43:43;;;;;;;;;;;;;;;;;;5104686;27;19956;-86
2021/06/30 20:47:11;;;;;;;;;;;;;;;;;;4930828;27;6023223;-85
2021/06/30 20:50:33;;;;;;;;;;;;;;;;;;5120351;27;20202;-86
2021/06/30 21:04:26;;;;;;;;;;;;;;;;;;5112743;27;19994;-84
2021/06/30 21:07:23;;;;;;;;;;;;;;;;;;4831822;27;9653525;-82
2021/06/30 21:10:22;;;;;;;;;;;;;;;;;;5075519;27;2029800;-86
2021/06/30 21:13:45;;;;;;;;;;;;;;;;;;5087766;27;19947;-82
2021/06/30 21:17:13;;;;;;;;;;;;;;;;;;4867533;27;7055207;-83
2021/06/30 21:20:32;;;;;;;;;;;;;;;;;;5107699;27;19972;-83
2021/06/30 21:24:18;;;;;;;;;;;;;;;;;;5113480;27;20365;-83
2021/06/30 21:27:19;;;;;;;;;;;;;;;;;;4714723;27;11781138;-86
2021/06/30 21:33:46;;;;;;;;;;;;;;;;;;5047089;28;19929;-83
2021/06/30 21:39:15;;;;;;;;;;;;;;;;;;5115722;27;19983;-84
2021/06/30 21:43:01;;;;;;;;;;;;;;;;;;5115368;27;19920;-85
2021/06/30 21:46:30;;;;;;;;;;;;;;;;;;5110220;27;19963;-86
2021/06/30 21:49:28;;;;;;;;;;;;;;;;;;4962981;27;4456603;-85
2021/06/30 21:52:41;;;;;;;;;;;;;;;;;;5141037;27;19980;-85
2021/06/30 22:04:56;;;;;;;;;;;;;;;;;;4807456;27;6973492;-82
2021/06/30 22:08:13;;;;;;;;;;;;;;;;;;5115306;27;19970;-85
2021/06/30 22:11:47;;;;;;;;;;;;;;;;;;5086356;28;19952;-83
2021/06/30 22:14:48;;;;;;;;;;;;;;;;;;4960533;27;4585578;-83
2021/06/30 22:17:34;;;;;;;;;;;;;;;;;;5138490;27;19912;-86
2021/06/30 22:20:44;;;;;;;;;;;;;;;;;;5092961;27;19962;-85
2021/06/30 22:34:04;;;;;;;;;;;;;;;;;;5076913;28;19935;-82
2021/06/30 22:36:57;;;;;;;;;;;;;;;;;;5033239;28;19968;-85
2021/06/30 22:39:47;;;;;;;;;;;;;;;;;;5053121;27;2097745;-86
2021/06/30 22:42:30;;;;;;;;;;;;;;;;;;5122465;27;20386;-83
2021/06/30 22:45:16;;;;;;;;;;;;;;;;;;5088736;27;19943;-83
2021/06/30 22:47:59;;;;;;;;;;;;;;;;;;5061409;28;19913;-84
2021/06/30 22:50:46;;;;;;;;;;;;;;;;;;5102803;27;20366;-85
2021/06/30 22:53:28;;;;;;;;;;;;;;;;;;5129906;27;19912;-84
2021/06/30 22:56:15;;;;;;;;;;;;;;;;;;5129938;27;19919;-82
2021/06/30 22:58:57;;;;;;;;;;;;;;;;;;5144487;27;19912;-87
2021/06/30 23:01:44;;;;;;;;;;;;;;;;;;5110141;27;20263;-85
2021/06/30 23:04:28;;;;;;;;;;;;;;;;;;5089831;27;20394;-86
2021/06/30 23:07:11;;;;;;;;;;;;;;;;;;5117194;27;19912;-84
2021/06/30 23:10:12;;;;;;;;;;;;;;;;;;5113368;27;19917;-86
2021/06/30 23:12:57;;;;;;;;;;;;;;;;;;5106125;27;19943;-83
2021/06/30 23:15:44;;;;;;;;;;;;;;;;;;5090923;27;19913;-87
2021/06/30 23:18:26;;;;;;;;;;;;;;;;;;5167923;27;20375;-85
2021/06/30 23:21:09;;;;;;;;;;;;;;;;;;5116218;27;20375;-86
2021/06/30 23:23:54;;;;;;;;;;;;;;;;;;5116936;27;19938;-86
2021/06/30 23:26:37;;;;;;;;;;;;;;;;;;5090848;27;19967;-88
2021/06/30 23:29:20;;;;;;;;;;;;;;;;;;5044012;28;19984;-84
2021/06/30 23:32:05;;;;;;;;;;;;;;;;;;5046463;28;19917;-87
2021/06/30 23:34:49;;;;;;;;;;;;;;;;;;5086428;27;19912;-86
2021/06/30 23:37:33;;;;;;;;;;;;;;;;;;5124728;27;19913;-86
2021/06/30 23:40:20;;;;;;;;;;;;;;;;;;5140671;27;19934;-86
2021/06/30 23:43:02;;;;;;;;;;;;;;;;;;5087700;27;19959;-86
2021/06/30 23:45:44;;;;;;;;;;;;;;;;;;5096566;27;19913;-87
2021/06/30 23:48:40;;;;;;;;;;;;;;;;;;5093053;27;20333;-86
2021/06/30 23:51:21;;;;;;;;;;;;;;;;;;5137903;27;19937;-88
2021/06/30 23:54:03;;;;;;;;;;;;;;;;;;5105876;27;19905;-86
